Hume, California
Current Conditions -  °F | °C
As of 3:35 PM on Monday 20 Oct 2014 (Local Time) from KVIS Reporting Station
Clear Clear  
Wind Chill: 81°   Ceiling: Unl
Heat Index: 81°   Visibility: 10mi
Dew Point: 55°   Wind: 6mph
Humidity: 42%   Direction: 290°WNW
Pressure: 29.88"   Gusts: NA
Location:  36.78°N, 118.91°W
Report Text: KVIS 202235Z 29005KT 10SM CLR 27/13 A2988 RMK AO1
Loading
Personal Weather Stations






























Interactive Weather Map New forecast layout! Learn more

10-Day Weather Forecast

Advertisements
Track Severe Weather on mobile